sensor_id;sensor_type;location;lat;lon;timestamp;pressure;altitude;pressure_sealevel;temperature;humidity
62926;BME280;55732;52.248;-0.844;2022-09-20T00:00:40;101718.55;;;10.95;78.27
62926;BME280;55732;52.248;-0.844;2022-09-20T00:03:08;101722.52;;;10.91;78.06
62926;BME280;55732;52.248;-0.844;2022-09-20T00:05:35;101717.70;;;10.88;78.00
62926;BME280;55732;52.248;-0.844;2022-09-20T00:08:03;101713.96;;;10.84;77.78
62926;BME280;55732;52.248;-0.844;2022-09-20T00:10:29;101716.85;;;10.77;77.79
62926;BME280;55732;52.248;-0.844;2022-09-20T00:13:00;101719.41;;;10.72;77.98
62926;BME280;55732;52.248;-0.844;2022-09-20T00:15:26;101716.88;;;10.68;78.10
62926;BME280;55732;52.248;-0.844;2022-09-20T00:17:51;101723.17;;;10.66;78.30
62926;BME280;55732;52.248;-0.844;2022-09-20T00:20:16;101724.58;;;10.65;78.42
62926;BME280;55732;52.248;-0.844;2022-09-20T00:22:42;101722.84;;;10.66;78.61
62926;BME280;55732;52.248;-0.844;2022-09-20T00:25:08;101722.51;;;10.68;78.75
62926;BME280;55732;52.248;-0.844;2022-09-20T00:27:33;101723.55;;;10.67;78.25
62926;BME280;55732;52.248;-0.844;2022-09-20T00:29:59;101720.73;;;10.67;78.31
62926;BME280;55732;52.248;-0.844;2022-09-20T00:32:24;101726.02;;;10.68;78.49
62926;BME280;55732;52.248;-0.844;2022-09-20T00:34:49;101723.52;;;10.65;78.38
62926;BME280;55732;52.248;-0.844;2022-09-20T00:37:39;101732.91;;;10.68;78.39
62926;BME280;55732;52.248;-0.844;2022-09-20T00:40:12;101738.73;;;10.69;78.49
62926;BME280;55732;52.248;-0.844;2022-09-20T00:42:38;101740.69;;;10.70;78.23
62926;BME280;55732;52.248;-0.844;2022-09-20T00:45:06;101738.33;;;10.66;77.67
62926;BME280;55732;52.248;-0.844;2022-09-20T00:47:39;101737.86;;;10.58;77.57
62926;BME280;55732;52.248;-0.844;2022-09-20T00:50:16;101742.10;;;10.50;78.02
62926;BME280;55732;52.248;-0.844;2022-09-20T00:52:48;101743.27;;;10.46;78.12
62926;BME280;55732;52.248;-0.844;2022-09-20T00:55:17;101745.20;;;10.45;78.61
62926;BME280;55732;52.248;-0.844;2022-09-20T00:57:43;101745.20;;;10.46;78.83
62926;BME280;55732;52.248;-0.844;2022-09-20T01:00:10;101747.13;;;10.45;79.01
62926;BME280;55732;52.248;-0.844;2022-09-20T01:02:42;101745.20;;;10.46;78.91
62926;BME280;55732;52.248;-0.844;2022-09-20T01:05:11;101751.89;;;10.46;78.77
62926;BME280;55732;52.248;-0.844;2022-09-20T01:07:39;101754.50;;;10.45;79.05
62926;BME280;55732;52.248;-0.844;2022-09-20T01:10:06;101752.05;;;10.45;79.23
62926;BME280;55732;52.248;-0.844;2022-09-20T01:12:32;101755.61;;;10.46;79.58
62926;BME280;55732;52.248;-0.844;2022-09-20T01:15:02;101750.16;;;10.47;79.57
62926;BME280;55732;52.248;-0.844;2022-09-20T01:17:30;101755.26;;;10.46;79.73
62926;BME280;55732;52.248;-0.844;2022-09-20T01:20:17;101750.48;;;10.46;79.43
62926;BME280;55732;52.248;-0.844;2022-09-20T01:28:11;101754.58;;;10.40;78.99
62926;BME280;55732;52.248;-0.844;2022-09-20T01:31:14;101753.10;;;10.35;78.69
62926;BME280;55732;52.248;-0.844;2022-09-20T01:34:07;101748.20;;;10.28;78.77
62926;BME280;55732;52.248;-0.844;2022-09-20T01:36:50;101749.69;;;10.22;78.60
62926;BME280;55732;52.248;-0.844;2022-09-20T01:39:31;101747.20;;;10.21;78.93
62926;BME280;55732;52.248;-0.844;2022-09-20T01:42:04;101743.16;;;10.21;78.99
62926;BME280;55732;52.248;-0.844;2022-09-20T01:49:55;101742.47;;;10.15;78.45
62926;BME280;55732;52.248;-0.844;2022-09-20T01:55:24;101741.41;;;10.05;78.60
62926;BME280;55732;52.248;-0.844;2022-09-20T02:06:48;101741.55;;;9.95;78.58
62926;BME280;55732;52.248;-0.844;2022-09-20T02:12:17;101736.73;;;9.92;78.58
62926;BME280;55732;52.248;-0.844;2022-09-20T02:15:02;101739.02;;;9.91;78.82
62926;BME280;55732;52.248;-0.844;2022-09-20T02:21:03;101736.58;;;9.92;79.35
62926;BME280;55732;52.248;-0.844;2022-09-20T02:39:19;101737.73;;;9.62;79.01
62926;BME280;55732;52.248;-0.844;2022-09-20T02:45:17;101732.67;;;9.56;79.20
62926;BME280;55732;52.248;-0.844;2022-09-20T02:47:46;101732.77;;;9.53;79.24
62926;BME280;55732;52.248;-0.844;2022-09-20T03:00:37;101726.59;;;9.43;79.95
62926;BME280;55732;52.248;-0.844;2022-09-20T03:17:31;101719.91;;;9.43;79.64
62926;BME280;55732;52.248;-0.844;2022-09-20T03:20:22;101713.60;;;9.45;79.66
62926;BME280;55732;52.248;-0.844;2022-09-20T03:22:55;101720.11;;;9.46;79.69
62926;BME280;55732;52.248;-0.844;2022-09-20T03:25:35;101714.52;;;9.47;79.63
62926;BME280;55732;52.248;-0.844;2022-09-20T03:37:28;101713.26;;;9.20;79.51
62926;BME280;55732;52.248;-0.844;2022-09-20T03:42:19;101716.68;;;9.16;80.05
62926;BME280;55732;52.248;-0.844;2022-09-20T03:58:27;101712.96;;;9.30;80.57
62926;BME280;55732;52.248;-0.844;2022-09-20T04:03:42;101715.85;;;9.35;80.70
62926;BME280;55732;52.248;-0.844;2022-09-20T04:20:43;101698.81;;;9.69;80.72
62926;BME280;55732;52.248;-0.844;2022-09-20T04:23:35;101700.32;;;9.73;80.69
62926;BME280;55732;52.248;-0.844;2022-09-20T04:26:03;101701.62;;;9.76;80.91
62926;BME280;55732;52.248;-0.844;2022-09-20T04:28:42;101698.81;;;9.76;80.61
62926;BME280;55732;52.248;-0.844;2022-09-20T04:31:21;101700.43;;;9.79;80.86
62926;BME280;55732;52.248;-0.844;2022-09-20T04:33:50;101698.42;;;9.84;80.75
62926;BME280;55732;52.248;-0.844;2022-09-20T04:44:32;101699.34;;;9.95;80.36
62926;BME280;55732;52.248;-0.844;2022-09-20T04:50:18;101694.39;;;10.03;80.64
62926;BME280;55732;52.248;-0.844;2022-09-20T04:58:31;101693.07;;;9.98;80.41
62926;BME280;55732;52.248;-0.844;2022-09-20T05:11:53;101690.39;;;10.06;80.59
62926;BME280;55732;52.248;-0.844;2022-09-20T05:20:18;101682.45;;;10.13;80.60
62926;BME280;55732;52.248;-0.844;2022-09-20T05:30:46;101693.21;;;10.06;80.33
62926;BME280;55732;52.248;-0.844;2022-09-20T05:33:36;101697.57;;;10.03;80.23
62926;BME280;55732;52.248;-0.844;2022-09-20T05:36:07;101697.66;;;9.98;80.18
62926;BME280;55732;52.248;-0.844;2022-09-20T05:38:46;101701.95;;;9.94;80.39
62926;BME280;55732;52.248;-0.844;2022-09-20T05:55:14;101709.17;;;10.03;80.89
62926;BME280;55732;52.248;-0.844;2022-09-20T06:00:58;101712.11;;;10.09;80.94
62926;BME280;55732;52.248;-0.844;2022-09-20T06:03:48;101713.95;;;10.13;80.85
62926;BME280;55732;52.248;-0.844;2022-09-20T06:12:12;101722.88;;;10.19;80.68
62926;BME280;55732;52.248;-0.844;2022-09-20T06:14:51;101727.23;;;10.25;80.98
62926;BME280;55732;52.248;-0.844;2022-09-20T06:17:34;101733.29;;;10.30;80.96
62926;BME280;55732;52.248;-0.844;2022-09-20T06:20:11;101737.43;;;10.35;81.15
62926;BME280;55732;52.248;-0.844;2022-09-20T06:22:43;101733.98;;;10.39;80.69
62926;BME280;55732;52.248;-0.844;2022-09-20T06:27:39;101741.73;;;10.49;80.96
62926;BME280;55732;52.248;-0.844;2022-09-20T06:30:18;101741.67;;;10.56;81.00
62926;BME280;55732;52.248;-0.844;2022-09-20T06:33:13;101743.56;;;10.63;80.92
62926;BME280;55732;52.248;-0.844;2022-09-20T06:39:10;101747.71;;;10.79;81.20
62926;BME280;55732;52.248;-0.844;2022-09-20T06:42:08;101752.11;;;10.90;81.33
62926;BME280;55732;52.248;-0.844;2022-09-20T06:44:36;101750.52;;;11.01;81.12
62926;BME280;55732;52.248;-0.844;2022-09-20T06:47:12;101754.92;;;11.12;81.06
62926;BME280;55732;52.248;-0.844;2022-09-20T06:49:38;101759.30;;;11.21;81.10
62926;BME280;55732;52.248;-0.844;2022-09-20T06:52:13;101762.10;;;11.32;80.87
62926;BME280;55732;52.248;-0.844;2022-09-20T06:54:41;101759.95;;;11.42;80.94
62926;BME280;55732;52.248;-0.844;2022-09-20T06:57:11;101758.64;;;11.49;80.76
62926;BME280;55732;52.248;-0.844;2022-09-20T06:59:38;101758.55;;;11.55;80.76
62926;BME280;55732;52.248;-0.844;2022-09-20T07:02:04;101760.52;;;11.58;80.92
62926;BME280;55732;52.248;-0.844;2022-09-20T07:04:29;101756.70;;;11.62;81.00
62926;BME280;55732;52.248;-0.844;2022-09-20T07:07:02;101763.64;;;11.66;80.99
62926;BME280;55732;52.248;-0.844;2022-09-20T07:09:28;101763.17;;;11.71;81.20
62926;BME280;55732;52.248;-0.844;2022-09-20T07:11:54;101758.20;;;11.78;81.29
62926;BME280;55732;52.248;-0.844;2022-09-20T07:14:24;101761.98;;;11.86;81.31
62926;BME280;55732;52.248;-0.844;2022-09-20T07:16:51;101764.05;;;11.95;81.23
62926;BME280;55732;52.248;-0.844;2022-09-20T07:19:16;101763.95;;;12.02;81.34
62926;BME280;55732;52.248;-0.844;2022-09-20T07:21:42;101761.51;;;12.06;81.25
62926;BME280;55732;52.248;-0.844;2022-09-20T07:24:07;101763.71;;;12.12;80.98
62926;BME280;55732;52.248;-0.844;2022-09-20T07:26:33;101758.11;;;12.18;81.04
62926;BME280;55732;52.248;-0.844;2022-09-20T07:28:59;101755.91;;;12.25;81.05
62926;BME280;55732;52.248;-0.844;2022-09-20T07:31:26;101755.45;;;12.32;80.71
62926;BME280;55732;52.248;-0.844;2022-09-20T07:33:52;101751.27;;;12.38;80.67
62926;BME280;55732;52.248;-0.844;2022-09-20T07:36:18;101744.73;;;12.39;80.70
62926;BME280;55732;52.248;-0.844;2022-09-20T07:38:48;101742.83;;;12.43;80.77
62926;BME280;55732;52.248;-0.844;2022-09-20T07:41:15;101748.55;;;12.48;80.92
62926;BME280;55732;52.248;-0.844;2022-09-20T07:43:43;101757.26;;;12.55;80.99
62926;BME280;55732;52.248;-0.844;2022-09-20T07:46:09;101766.34;;;12.62;81.20
62926;BME280;55732;52.248;-0.844;2022-09-20T07:48:36;101768.54;;;12.69;81.32
62926;BME280;55732;52.248;-0.844;2022-09-20T07:51:12;101773.54;;;12.76;81.27
62926;BME280;55732;52.248;-0.844;2022-09-20T07:53:39;101773.11;;;12.87;81.23
62926;BME280;55732;52.248;-0.844;2022-09-20T07:56:09;101775.87;;;13.00;80.99
62926;BME280;55732;52.248;-0.844;2022-09-20T07:58:36;101779.66;;;13.11;80.63
62926;BME280;55732;52.248;-0.844;2022-09-20T08:01:06;101780.66;;;13.22;80.64
62926;BME280;55732;52.248;-0.844;2022-09-20T08:03:33;101784.98;;;13.32;80.28
62926;BME280;55732;52.248;-0.844;2022-09-20T08:06:07;101782.38;;;13.40;79.92
62926;BME280;55732;52.248;-0.844;2022-09-20T08:08:34;101782.98;;;13.53;79.71
62926;BME280;55732;52.248;-0.844;2022-09-20T08:11:06;101782.01;;;13.68;79.53
62926;BME280;55732;52.248;-0.844;2022-09-20T08:13:39;101780.67;;;13.84;79.04
62926;BME280;55732;52.248;-0.844;2022-09-20T08:16:07;101786.76;;;14.00;78.70
62926;BME280;55732;52.248;-0.844;2022-09-20T08:18:35;101788.77;;;14.13;78.23
62926;BME280;55732;52.248;-0.844;2022-09-20T08:21:06;101793.74;;;14.22;77.98
62926;BME280;55732;52.248;-0.844;2022-09-20T08:23:35;101796.06;;;14.32;77.79
62926;BME280;55732;52.248;-0.844;2022-09-20T08:26:02;101798.63;;;14.45;77.41
62926;BME280;55732;52.248;-0.844;2022-09-20T08:28:28;101801.48;;;14.56;76.88
62926;BME280;55732;52.248;-0.844;2022-09-20T08:31:10;101807.88;;;14.64;76.64
62926;BME280;55732;52.248;-0.844;2022-09-20T08:33:37;101803.64;;;14.73;76.57
62926;BME280;55732;52.248;-0.844;2022-09-20T08:36:04;101806.48;;;14.82;76.26
62926;BME280;55732;52.248;-0.844;2022-09-20T08:38:33;101806.14;;;14.95;75.83
62926;BME280;55732;52.248;-0.844;2022-09-20T08:41:13;101801.52;;;15.16;75.41
62926;BME280;55732;52.248;-0.844;2022-09-20T08:43:47;101798.84;;;15.35;74.96
62926;BME280;55732;52.248;-0.844;2022-09-20T08:46:17;101802.71;;;15.63;74.67
62926;BME280;55732;52.248;-0.844;2022-09-20T08:48:44;101804.62;;;16.24;73.30
62926;BME280;55732;52.248;-0.844;2022-09-20T08:51:12;101804.35;;;16.72;72.47
62926;BME280;55732;52.248;-0.844;2022-09-20T08:53:52;101805.12;;;17.12;71.30
62926;BME280;55732;52.248;-0.844;2022-09-20T08:56:19;101805.39;;;18.17;69.24
62926;BME280;55732;52.248;-0.844;2022-09-20T08:58:45;101805.78;;;19.44;66.86
62926;BME280;55732;52.248;-0.844;2022-09-20T09:01:23;101806.06;;;20.61;64.06
62926;BME280;55732;52.248;-0.844;2022-09-20T09:03:50;101804.92;;;21.10;62.78
62926;BME280;55732;52.248;-0.844;2022-09-20T09:06:17;101806.05;;;20.78;62.80
62926;BME280;55732;52.248;-0.844;2022-09-20T09:08:45;101805.14;;;20.71;62.26
62926;BME280;55732;52.248;-0.844;2022-09-20T09:11:18;101806.10;;;20.90;61.49
62926;BME280;55732;52.248;-0.844;2022-09-20T09:13:56;101804.66;;;21.26;60.54
62926;BME280;55732;52.248;-0.844;2022-09-20T09:16:27;101802.42;;;22.72;57.09
62926;BME280;55732;52.248;-0.844;2022-09-20T09:18:53;101804.46;;;23.40;56.38
62926;BME280;55732;52.248;-0.844;2022-09-20T09:21:27;101800.39;;;23.74;55.17
62926;BME280;55732;52.248;-0.844;2022-09-20T09:24:04;101800.96;;;25.14;52.36
62926;BME280;55732;52.248;-0.844;2022-09-20T09:26:38;101799.77;;;26.65;49.62
62926;BME280;55732;52.248;-0.844;2022-09-20T09:29:19;101796.17;;;27.67;47.48
62926;BME280;55732;52.248;-0.844;2022-09-20T09:31:47;101795.23;;;29.00;45.09
62926;BME280;55732;52.248;-0.844;2022-09-20T09:34:24;101791.75;;;29.46;44.23
62926;BME280;55732;52.248;-0.844;2022-09-20T09:36:51;101792.67;;;29.19;43.68
62926;BME280;55732;52.248;-0.844;2022-09-20T09:39:23;101789.77;;;28.72;43.87
62926;BME280;55732;52.248;-0.844;2022-09-20T09:41:49;101790.78;;;28.26;44.05
62926;BME280;55732;52.248;-0.844;2022-09-20T09:46:40;101783.70;;;28.30;43.31
62926;BME280;55732;52.248;-0.844;2022-09-20T09:49:20;101788.77;;;28.17;43.27
62926;BME280;55732;52.248;-0.844;2022-09-20T09:54:38;101783.98;;;28.21;42.40
62926;BME280;55732;52.248;-0.844;2022-09-20T10:00:04;101783.27;;;28.41;41.79
62926;BME280;55732;52.248;-0.844;2022-09-20T10:05:33;101786.87;;;28.05;41.58
62926;BME280;55732;52.248;-0.844;2022-09-20T10:11:28;101788.11;;;27.24;42.37
62926;BME280;55732;52.248;-0.844;2022-09-20T10:14:33;101788.23;;;28.04;40.97
62926;BME280;55732;52.248;-0.844;2022-09-20T10:17:35;101787.02;;;28.19;40.76
62926;BME280;55732;52.248;-0.844;2022-09-20T10:36:52;101785.54;;;26.64;42.49
62926;BME280;55732;52.248;-0.844;2022-09-20T10:48:02;101779.42;;;25.46;42.76
62926;BME280;55732;52.248;-0.844;2022-09-20T10:50:42;101781.70;;;24.98;43.56
62926;BME280;55732;52.248;-0.844;2022-09-20T10:56:46;101778.84;;;24.21;44.17
62926;BME280;55732;52.248;-0.844;2022-09-20T11:07:20;101774.07;;;23.10;45.66
62926;BME280;55732;52.248;-0.844;2022-09-20T11:09:56;101776.63;;;22.71;45.82
62926;BME280;55732;52.248;-0.844;2022-09-20T11:12:37;101770.59;;;22.34;46.28
62926;BME280;55732;52.248;-0.844;2022-09-20T11:15:44;101777.02;;;22.00;46.67
62926;BME280;55732;52.248;-0.844;2022-09-20T11:20:43;101774.48;;;21.88;47.71
62926;BME280;55732;52.248;-0.844;2022-09-20T11:23:20;101774.05;;;21.97;47.87
62926;BME280;55732;52.248;-0.844;2022-09-20T11:25:53;101778.58;;;22.08;47.61
62926;BME280;55732;52.248;-0.844;2022-09-20T11:28:49;101773.12;;;22.17;47.52
62926;BME280;55732;52.248;-0.844;2022-09-20T11:31:24;101772.20;;;22.35;46.35
62926;BME280;55732;52.248;-0.844;2022-09-20T11:33:56;101773.95;;;22.47;45.56
62926;BME280;55732;52.248;-0.844;2022-09-20T11:36:34;101768.28;;;22.62;45.20
62926;BME280;55732;52.248;-0.844;2022-09-20T11:41:45;101764.55;;;22.50;44.42
62926;BME280;55732;52.248;-0.844;2022-09-20T11:44:14;101766.52;;;22.33;44.79
62926;BME280;55732;52.248;-0.844;2022-09-20T11:46:59;101771.73;;;22.09;44.99
62926;BME280;55732;52.248;-0.844;2022-09-20T11:57:43;101769.53;;;22.17;45.53
62926;BME280;55732;52.248;-0.844;2022-09-20T12:00:10;101768.42;;;22.29;45.85
62926;BME280;55732;52.248;-0.844;2022-09-20T12:02:40;101765.23;;;22.34;45.72
62926;BME280;55732;52.248;-0.844;2022-09-20T12:05:38;101771.09;;;22.12;45.24
62926;BME280;55732;52.248;-0.844;2022-09-20T12:08:15;101771.67;;;21.74;43.76
62926;BME280;55732;52.248;-0.844;2022-09-20T12:10:54;101767.39;;;21.34;43.03
62926;BME280;55732;52.248;-0.844;2022-09-20T12:13:23;101766.22;;;21.31;43.73
62926;BME280;55732;52.248;-0.844;2022-09-20T12:16:02;101767.79;;;21.39;44.24
62926;BME280;55732;52.248;-0.844;2022-09-20T12:18:47;101765.88;;;21.24;44.55
62926;BME280;55732;52.248;-0.844;2022-09-20T12:21:25;101768.54;;;21.10;43.79
62926;BME280;55732;52.248;-0.844;2022-09-20T12:28:46;101762.95;;;20.83;44.33
62926;BME280;55732;52.248;-0.844;2022-09-20T12:36:19;101758.30;;;20.68;43.86
62926;BME280;55732;52.248;-0.844;2022-09-20T12:38:46;101761.46;;;20.64;44.37
62926;BME280;55732;52.248;-0.844;2022-09-20T12:41:15;101758.64;;;20.62;44.35
62926;BME280;55732;52.248;-0.844;2022-09-20T12:43:58;101753.18;;;20.58;44.35
62926;BME280;55732;52.248;-0.844;2022-09-20T12:46:40;101750.65;;;20.67;44.78
62926;BME280;55732;52.248;-0.844;2022-09-20T12:49:26;101754.45;;;20.86;44.80
62926;BME280;55732;52.248;-0.844;2022-09-20T13:00:33;101750.02;;;21.21;43.99
62926;BME280;55732;52.248;-0.844;2022-09-20T13:11:25;101748.80;;;20.62;44.16
62926;BME280;55732;52.248;-0.844;2022-09-20T13:13:55;101740.89;;;20.48;44.30
62926;BME280;55732;52.248;-0.844;2022-09-20T13:19:22;101747.89;;;20.41;44.99
62926;BME280;55732;52.248;-0.844;2022-09-20T13:21:56;101748.17;;;20.42;44.50
62926;BME280;55732;52.248;-0.844;2022-09-20T13:24:28;101752.69;;;20.41;43.19
62926;BME280;55732;52.248;-0.844;2022-09-20T13:27:00;101753.49;;;20.38;43.71
62926;BME280;55732;52.248;-0.844;2022-09-20T13:29:38;101752.64;;;20.35;44.55
62926;BME280;55732;52.248;-0.844;2022-09-20T13:32:29;101749.42;;;20.35;45.82
62926;BME280;55732;52.248;-0.844;2022-09-20T13:35:12;101752.05;;;20.38;46.47
62926;BME280;55732;52.248;-0.844;2022-09-20T13:38:02;101748.87;;;20.43;46.93
62926;BME280;55732;52.248;-0.844;2022-09-20T13:40:44;101750.60;;;20.39;46.87
62926;BME280;55732;52.248;-0.844;2022-09-20T13:43:36;101749.00;;;20.29;46.73
62926;BME280;55732;52.248;-0.844;2022-09-20T13:48:41;101749.58;;;20.11;46.97
62926;BME280;55732;52.248;-0.844;2022-09-20T13:51:23;101751.04;;;20.02;46.85
62926;BME280;55732;52.248;-0.844;2022-09-20T13:53:49;101748.44;;;19.90;46.71
62926;BME280;55732;52.248;-0.844;2022-09-20T13:56:22;101748.69;;;19.78;46.68
62926;BME280;55732;52.248;-0.844;2022-09-20T13:58:49;101753.08;;;19.65;47.51
62926;BME280;55732;52.248;-0.844;2022-09-20T14:01:29;101748.58;;;19.58;47.94
62926;BME280;55732;52.248;-0.844;2022-09-20T14:04:04;101747.55;;;19.55;48.77
62926;BME280;55732;52.248;-0.844;2022-09-20T14:06:31;101747.40;;;19.54;48.88
62926;BME280;55732;52.248;-0.844;2022-09-20T14:08:58;101748.48;;;19.53;48.96
62926;BME280;55732;52.248;-0.844;2022-09-20T14:11:29;101746.02;;;19.50;48.97
62926;BME280;55732;52.248;-0.844;2022-09-20T14:13:57;101744.95;;;19.50;48.95
62926;BME280;55732;52.248;-0.844;2022-09-20T14:16:28;101740.95;;;19.54;48.93
62926;BME280;55732;52.248;-0.844;2022-09-20T14:18:56;101740.42;;;19.63;49.09
62926;BME280;55732;52.248;-0.844;2022-09-20T14:21:31;101738.02;;;19.75;48.84
62926;BME280;55732;52.248;-0.844;2022-09-20T14:26:39;101736.77;;;20.01;48.07
62926;BME280;55732;52.248;-0.844;2022-09-20T14:29:43;101733.34;;;20.09;47.62
62926;BME280;55732;52.248;-0.844;2022-09-20T14:34:46;101730.29;;;20.18;46.85
62926;BME280;55732;52.248;-0.844;2022-09-20T14:37:24;101730.89;;;20.16;47.09
62926;BME280;55732;52.248;-0.844;2022-09-20T14:40:18;101731.46;;;20.14;47.39
62926;BME280;55732;52.248;-0.844;2022-09-20T14:42:59;101725.44;;;20.11;47.64
62926;BME280;55732;52.248;-0.844;2022-09-20T14:45:32;101726.52;;;20.11;47.64
62926;BME280;55732;52.248;-0.844;2022-09-20T14:50:42;101723.54;;;20.08;47.67
62926;BME280;55732;52.248;-0.844;2022-09-20T14:55:53;101718.31;;;20.03;47.07
62926;BME280;55732;52.248;-0.844;2022-09-20T14:58:19;101721.53;;;20.02;47.37
62926;BME280;55732;52.248;-0.844;2022-09-20T15:00:57;101718.70;;;20.01;47.60
62926;BME280;55732;52.248;-0.844;2022-09-20T15:03:31;101717.49;;;19.98;47.87
62926;BME280;55732;52.248;-0.844;2022-09-20T15:05:58;101718.25;;;19.96;47.42
62926;BME280;55732;52.248;-0.844;2022-09-20T15:08:23;101720.09;;;19.95;47.61
62926;BME280;55732;52.248;-0.844;2022-09-20T15:10:50;101722.11;;;19.93;47.60
62926;BME280;55732;52.248;-0.844;2022-09-20T15:13:16;101722.18;;;19.89;48.07
62926;BME280;55732;52.248;-0.844;2022-09-20T15:15:48;101726.90;;;19.85;48.34
62926;BME280;55732;52.248;-0.844;2022-09-20T15:18:19;101729.16;;;19.80;48.29
62926;BME280;55732;52.248;-0.844;2022-09-20T15:20:47;101729.05;;;19.77;48.15
62926;BME280;55732;52.248;-0.844;2022-09-20T15:23:13;101723.73;;;19.74;46.53
62926;BME280;55732;52.248;-0.844;2022-09-20T15:25:39;101722.71;;;19.71;46.10
62926;BME280;55732;52.248;-0.844;2022-09-20T15:28:04;101722.60;;;19.70;46.26
62926;BME280;55732;52.248;-0.844;2022-09-20T15:30:32;101723.02;;;19.67;46.49
62926;BME280;55732;52.248;-0.844;2022-09-20T15:32:57;101719.70;;;19.62;46.56
62926;BME280;55732;52.248;-0.844;2022-09-20T15:35:23;101717.96;;;19.60;46.78
62926;BME280;55732;52.248;-0.844;2022-09-20T15:37:48;101714.80;;;19.58;46.70
62926;BME280;55732;52.248;-0.844;2022-09-20T15:40:14;101720.91;;;19.57;46.86
62926;BME280;55732;52.248;-0.844;2022-09-20T15:42:39;101716.85;;;19.54;47.14
62926;BME280;55732;52.248;-0.844;2022-09-20T15:45:10;101715.27;;;19.52;47.29
62926;BME280;55732;52.248;-0.844;2022-09-20T15:47:37;101718.05;;;19.46;47.57
62926;BME280;55732;52.248;-0.844;2022-09-20T15:50:04;101714.73;;;19.41;47.89
62926;BME280;55732;52.248;-0.844;2022-09-20T15:52:35;101713.18;;;19.38;48.19
62926;BME280;55732;52.248;-0.844;2022-09-20T15:55:05;101710.63;;;19.34;48.27
62926;BME280;55732;52.248;-0.844;2022-09-20T15:57:31;101707.80;;;19.31;48.27
62926;BME280;55732;52.248;-0.844;2022-09-20T15:59:57;101703.74;;;19.28;48.13
62926;BME280;55732;52.248;-0.844;2022-09-20T16:02:23;101703.61;;;19.25;48.02
62926;BME280;55732;52.248;-0.844;2022-09-20T16:04:49;101710.70;;;19.20;48.27
62926;BME280;55732;52.248;-0.844;2022-09-20T16:07:19;101708.13;;;19.13;48.64
62926;BME280;55732;52.248;-0.844;2022-09-20T16:09:53;101705.56;;;19.08;49.19
62926;BME280;55732;52.248;-0.844;2022-09-20T16:12:20;101706.02;;;19.02;49.46
62926;BME280;55732;52.248;-0.844;2022-09-20T16:14:46;101708.80;;;18.96;50.10
62926;BME280;55732;52.248;-0.844;2022-09-20T16:17:11;101706.23;;;18.91;49.67
62926;BME280;55732;52.248;-0.844;2022-09-20T16:19:37;101707.23;;;18.84;49.68
62926;BME280;55732;52.248;-0.844;2022-09-20T16:22:04;101704.80;;;18.80;49.87
62926;BME280;55732;52.248;-0.844;2022-09-20T16:24:32;101712.16;;;18.77;49.86
62926;BME280;55732;52.248;-0.844;2022-09-20T16:26:59;101712.60;;;18.74;50.20
62926;BME280;55732;52.248;-0.844;2022-09-20T16:29:25;101706.73;;;18.71;50.26
62926;BME280;55732;52.248;-0.844;2022-09-20T16:31:54;101709.79;;;18.70;50.01
62926;BME280;55732;52.248;-0.844;2022-09-20T16:34:25;101703.40;;;18.68;49.89
62926;BME280;55732;52.248;-0.844;2022-09-20T16:36:59;101708.58;;;18.67;50.21
62926;BME280;55732;52.248;-0.844;2022-09-20T16:39:26;101711.27;;;18.66;50.62
62926;BME280;55732;52.248;-0.844;2022-09-20T16:42:14;101709.34;;;18.65;50.73
62926;BME280;55732;52.248;-0.844;2022-09-20T16:44:41;101710.27;;;18.64;51.27
62926;BME280;55732;52.248;-0.844;2022-09-20T16:47:12;101713.86;;;18.62;51.80
62926;BME280;55732;52.248;-0.844;2022-09-20T16:49:40;101705.91;;;18.57;51.48
62926;BME280;55732;52.248;-0.844;2022-09-20T16:52:07;101716.77;;;18.59;51.38
62926;BME280;55732;52.248;-0.844;2022-09-20T16:54:33;101713.55;;;18.58;51.81
62926;BME280;55732;52.248;-0.844;2022-09-20T16:56:59;101713.73;;;18.58;52.00
62926;BME280;55732;52.248;-0.844;2022-09-20T16:59:25;101714.09;;;18.58;52.29
62926;BME280;55732;52.248;-0.844;2022-09-20T17:01:50;101718.01;;;18.59;52.75
62926;BME280;55732;52.248;-0.844;2022-09-20T17:04:17;101718.01;;;18.59;52.80
62926;BME280;55732;52.248;-0.844;2022-09-20T17:06:45;101716.58;;;18.58;52.02
62926;BME280;55732;52.248;-0.844;2022-09-20T17:09:12;101716.42;;;18.55;51.78
62926;BME280;55732;52.248;-0.844;2022-09-20T17:11:41;101713.95;;;18.53;52.03
62926;BME280;55732;52.248;-0.844;2022-09-20T17:14:10;101717.92;;;18.51;52.29
62926;BME280;55732;52.248;-0.844;2022-09-20T17:16:38;101719.77;;;18.48;52.85
62926;BME280;55732;52.248;-0.844;2022-09-20T17:19:12;101721.60;;;18.43;52.92
62926;BME280;55732;52.248;-0.844;2022-09-20T17:21:41;101714.04;;;18.38;52.90
62926;BME280;55732;52.248;-0.844;2022-09-20T17:24:14;101718.91;;;18.33;53.05
62926;BME280;55732;52.248;-0.844;2022-09-20T17:26:41;101720.25;;;18.28;53.29
62926;BME280;55732;52.248;-0.844;2022-09-20T17:29:10;101719.27;;;18.21;53.60
62926;BME280;55732;52.248;-0.844;2022-09-20T17:31:39;101724.70;;;18.16;54.04
62926;BME280;55732;52.248;-0.844;2022-09-20T17:34:08;101723.54;;;18.09;54.28
62926;BME280;55732;52.248;-0.844;2022-09-20T17:36:37;101725.41;;;18.03;54.69
62926;BME280;55732;52.248;-0.844;2022-09-20T17:39:06;101723.71;;;17.96;55.23
62926;BME280;55732;52.248;-0.844;2022-09-20T17:41:35;101721.30;;;17.91;55.18
62926;BME280;55732;52.248;-0.844;2022-09-20T17:44:02;101729.74;;;17.85;55.51
62926;BME280;55732;52.248;-0.844;2022-09-20T17:46:33;101733.57;;;17.80;55.77
62926;BME280;55732;52.248;-0.844;2022-09-20T17:49:01;101733.61;;;17.75;55.94
62926;BME280;55732;52.248;-0.844;2022-09-20T17:54:04;101737.14;;;17.64;56.46
62926;BME280;55732;52.248;-0.844;2022-09-20T17:56:29;101735.55;;;17.60;55.93
62926;BME280;55732;52.248;-0.844;2022-09-20T17:59:01;101739.71;;;17.55;56.37
62926;BME280;55732;52.248;-0.844;2022-09-20T18:01:28;101738.50;;;17.51;56.68